Time;durP1;ratioP1;P1;durP2;ratioP2;P2;SDS_P1;SDS_P2;PMS_P1;PMS_P2;Temp;Humidity;BMP_temperature;BMP_pressure;BME280_temperature;BME280_humidity;BME280_pressure;Samples;Min_cycle;Max_cycle;Signal;HPM_P1;HPM_P2
2022/02/13 00:01:18;;;;;;;17.00;6.38;;;;;;;3.91;70.59;101818.53;4994588;28;20464;-43
2022/02/13 00:03:46;;;;;;;14.45;6.32;;;;;;;3.91;71.25;101810.47;4994338;28;20042;-47
2022/02/13 00:06:13;;;;;;;12.43;6.10;;;;;;;3.88;70.79;101818.13;4994121;28;20137;-46
2022/02/13 00:08:41;;;;;;;12.73;6.00;;;;;;;3.87;71.53;101806.47;4994538;28;20069;-47
2022/02/13 00:11:16;;;;;;;15.63;6.82;;;;;;;3.89;71.54;101803.59;4994398;28;20444;-48
2022/02/13 00:13:45;;;;;;;11.98;5.53;;;;;;;3.87;71.85;101802.97;4994339;28;20133;-47
2022/02/13 00:16:13;;;;;;;13.30;6.32;;;;;;;3.88;74.61;101805.47;4994226;28;20057;-46
2022/02/13 00:18:41;;;;;;;14.57;5.70;;;;;;;3.90;74.07;101811.50;4994359;28;20050;-45
2022/02/13 00:21:30;;;;;;;10.70;5.82;;;;;;;3.88;73.95;101815.44;4976890;28;20590;-45
2022/02/13 00:23:58;;;;;;;12.05;5.60;;;;;;;3.84;72.47;101805.03;4994479;28;20049;-46
2022/02/13 00:26:26;;;;;;;15.18;6.03;;;;;;;3.86;73.16;101817.50;4993399;28;20048;-44
2022/02/13 00:28:53;;;;;;;13.57;6.25;;;;;;;3.86;72.32;101807.53;4993973;28;20414;-42
2022/02/13 00:31:22;;;;;;;13.00;5.72;;;;;;;3.82;70.95;101804.41;4993893;28;20097;-44
2022/02/13 00:33:51;;;;;;;11.70;4.95;;;;;;;3.76;70.41;101802.50;4994091;28;20104;-44
2022/02/13 00:36:18;;;;;;;15.30;6.43;;;;;;;3.75;70.75;101806.25;4993589;28;20046;-43
2022/02/13 00:38:47;;;;;;;11.50;5.47;;;;;;;3.76;71.95;101807.88;4993980;28;20137;-46
2022/02/13 00:41:17;;;;;;;11.13;5.28;;;;;;;3.77;71.43;101804.16;4977252;28;20078;-46
2022/02/13 00:43:45;;;;;;;9.85;4.68;;;;;;;3.78;73.62;101797.75;4993146;28;20046;-50
2022/02/13 00:46:13;;;;;;;11.68;5.05;;;;;;;3.75;70.15;101795.47;4993786;28;20050;-47
2022/02/13 00:48:42;;;;;;;14.32;5.85;;;;;;;3.78;72.15;101794.22;4996565;28;20061;-46
2022/02/13 00:51:10;;;;;;;11.00;5.63;;;;;;;3.77;72.46;101797.94;4977263;28;20054;-48
2022/02/13 00:53:38;;;;;;;12.55;5.07;;;;;;;3.72;69.97;101798.53;4976848;28;20047;-47
2022/02/13 00:56:08;;;;;;;10.35;4.80;;;;;;;3.72;71.55;101790.44;4995834;28;20046;-48
2022/02/13 00:58:36;;;;;;;10.50;5.00;;;;;;;3.70;71.49;101787.09;4998651;28;20054;-45
2022/02/13 01:01:05;;;;;;;12.57;5.50;;;;;;;3.67;71.02;101782.13;4993951;28;20065;-46
2022/02/13 01:03:35;;;;;;;11.65;5.65;;;;;;;3.62;69.99;101784.59;4993377;28;20058;-46
2022/02/13 01:06:03;;;;;;;12.23;5.18;;;;;;;3.61;71.54;101772.16;4977039;28;20057;-48
2022/02/13 01:08:31;;;;;;;9.85;5.00;;;;;;;3.60;72.12;101768.59;4993602;28;20054;-48
2022/02/13 01:10:59;;;;;;;12.40;5.35;;;;;;;3.57;70.35;101762.78;4993407;28;20129;-46
2022/02/13 01:13:28;;;;;;;12.60;5.25;;;;;;;3.59;71.51;101763.44;4976855;28;20047;-50
2022/02/13 01:15:56;;;;;;;14.00;5.72;;;;;;;3.53;69.18;101759.66;4976777;28;20097;-49
2022/02/13 01:18:25;;;;;;;12.35;5.60;;;;;;;3.56;70.44;101769.19;4960371;28;20051;-47
2022/02/13 01:20:53;;;;;;;13.60;5.75;;;;;;;3.44;69.80;101768.09;4976842;28;20125;-48
2022/02/13 01:23:22;;;;;;;13.80;5.05;;;;;;;3.37;69.79;101762.69;4993594;28;20057;-47
2022/02/13 01:25:50;;;;;;;11.07;5.35;;;;;;;3.34;69.63;101752.28;4993045;28;20050;-47
2022/02/13 01:28:19;;;;;;;10.18;4.90;;;;;;;3.36;69.50;101751.03;4976147;28;20054;-47
2022/02/13 01:30:49;;;;;;;8.65;4.38;;;;;;;3.34;69.02;101747.75;4993120;28;20054;-47
2022/02/13 01:33:17;;;;;;;11.25;5.13;;;;;;;3.32;69.27;101747.09;4976201;28;20123;-48
2022/02/13 01:35:45;;;;;;;11.13;4.93;;;;;;;3.34;70.35;101731.59;4993385;28;20054;-47
2022/02/13 01:38:12;;;;;;;13.50;5.88;;;;;;;3.35;69.70;101725.16;4993365;28;20053;-47
2022/02/13 01:40:40;;;;;;;13.00;5.07;;;;;;;3.36;69.29;101720.59;4992905;28;20054;-48
2022/02/13 01:43:09;;;;;;;9.60;4.80;;;;;;;3.35;69.35;101711.69;4993677;28;20060;-48
2022/02/13 01:45:37;;;;;;;12.70;5.35;;;;;;;3.39;69.55;101718.34;4993627;28;20050;-44
2022/02/13 01:48:08;;;;;;;10.65;4.95;;;;;;;3.33;69.62;101708.34;4993590;28;20081;-47
2022/02/13 01:50:37;;;;;;;11.57;5.10;;;;;;;3.38;71.52;101700.50;4996355;28;20047;-46
2022/02/13 01:53:06;;;;;;;11.25;5.20;;;;;;;3.34;70.11;101707.34;4996473;28;20133;-48
2022/02/13 01:55:34;;;;;;;12.05;5.28;;;;;;;3.34;70.18;101701.09;4996187;28;20081;-47
2022/02/13 01:58:03;;;;;;;10.77;4.95;;;;;;;3.33;70.42;101699.44;4979410;28;20190;-47
2022/02/13 02:00:30;;;;;;;10.15;5.10;;;;;;;3.32;70.85;101693.22;4979646;28;20053;-48
2022/02/13 02:02:58;;;;;;;10.25;5.28;;;;;;;3.29;69.72;101688.22;4979333;28;20077;-44
2022/02/13 02:05:26;;;;;;;10.68;4.90;;;;;;;3.30;70.09;101683.69;4996809;28;20076;-47
2022/02/13 02:07:54;;;;;;;11.43;5.22;;;;;;;3.25;70.17;101686.13;4996657;28;20043;-48
2022/02/13 02:10:23;;;;;;;11.13;4.82;;;;;;;3.22;68.93;101686.53;4979065;28;20050;-47
2022/02/13 02:12:51;;;;;;;8.98;4.90;;;;;;;3.15;70.66;101689.16;4996043;28;20038;-49
2022/02/13 02:15:18;;;;;;;8.02;4.18;;;;;;;3.18;71.84;101675.34;4978957;28;20046;-48
2022/02/13 02:17:46;;;;;;;10.90;4.80;;;;;;;3.23;70.91;101677.44;4996309;28;20051;-47
2022/02/13 02:20:14;;;;;;;11.52;4.57;;;;;;;3.25;71.30;101670.81;4996251;28;20050;-46
2022/02/13 02:22:55;;;;;;;10.30;4.53;;;;;;;3.29;71.42;101666.66;4996349;28;20058;-47
2022/02/13 02:25:23;;;;;;;8.88;4.32;;;;;;;3.34;73.06;101669.63;5001983;28;20389;-48
2022/02/13 02:27:50;;;;;;;10.63;4.63;;;;;;;3.35;73.30;101665.88;5000353;28;20093;-47
2022/02/13 02:30:18;;;;;;;8.88;4.70;;;;;;;3.34;72.56;101671.47;4996011;28;20048;-48
2022/02/13 02:32:47;;;;;;;9.98;4.53;;;;;;;3.32;71.84;101657.38;4996319;28;20050;-47
2022/02/13 02:35:16;;;;;;;10.50;4.82;;;;;;;3.32;72.33;101655.53;4995922;28;20046;-46
2022/02/13 02:37:44;;;;;;;8.98;4.80;;;;;;;3.25;71.18;101649.28;4996254;28;20130;-45
2022/02/13 02:40:15;;;;;;;10.25;4.50;;;;;;;3.25;72.27;101640.34;4995921;28;20054;-48
2022/02/13 02:42:43;;;;;;;10.70;4.75;;;;;;;3.22;70.81;101641.56;4995586;28;20125;-45
2022/02/13 02:45:14;;;;;;;8.52;4.15;;;;;;;3.18;71.04;101633.06;4962692;28;20097;-46
2022/02/13 02:47:43;;;;;;;8.45;4.00;;;;;;;3.18;71.20;101621.47;4995709;28;20060;-45
2022/02/13 02:50:13;;;;;;;8.65;4.00;;;;;;;3.20;71.21;101619.41;4995514;28;20057;-48
2022/02/13 02:52:41;;;;;;;9.90;4.60;;;;;;;3.25;73.70;101602.63;4995764;28;20046;-50
2022/02/13 02:55:10;;;;;;;8.40;4.00;;;;;;;3.23;73.73;101599.34;4979747;28;20054;-48
2022/02/13 02:57:38;;;;;;;8.10;4.40;;;;;;;3.18;72.22;101610.69;4999191;28;20153;-49
2022/02/13 03:00:07;;;;;;;9.25;4.43;;;;;;;3.18;72.16;101592.69;4979611;28;20090;-49
2022/02/13 03:02:37;;;;;;;8.18;4.13;;;;;;;3.19;72.13;101596.19;4995645;28;20047;-47
2022/02/13 03:05:06;;;;;;;9.38;4.38;;;;;;;3.21;71.72;101594.13;4978290;28;20050;-49
2022/02/13 03:07:34;;;;;;;7.97;4.20;;;;;;;3.24;73.07;101577.56;4995672;28;20056;-45
2022/02/13 03:10:04;;;;;;;9.38;3.90;;;;;;;3.25;74.98;101579.25;4995382;28;20122;-49
2022/02/13 03:12:32;;;;;;;8.27;4.30;;;;;;;3.26;74.15;101572.81;4995240;28;20110;-47
2022/02/13 03:15:00;;;;;;;8.70;4.35;;;;;;;3.25;73.59;101573.88;4995055;28;20043;-48
2022/02/13 03:17:30;;;;;;;8.68;4.20;;;;;;;3.34;78.68;101567.28;4995368;28;20109;-49
2022/02/13 03:19:58;;;;;;;7.95;4.20;;;;;;;3.32;75.99;101572.03;4995120;28;20051;-47
2022/02/13 03:22:26;;;;;;;8.85;3.92;;;;;;;3.30;78.42;101557.94;4995119;28;20057;-44
2022/02/13 03:24:59;;;;;;;7.00;3.35;;;;;;;3.32;78.33;101555.88;4994726;28;20046;-48
2022/02/13 03:27:27;;;;;;;7.47;3.72;;;;;;;3.36;81.02;101559.78;4994991;28;20122;-46
2022/02/13 03:29:55;;;;;;;10.05;4.70;;;;;;;3.41;81.17;101546.56;4995026;28;20101;-44
2022/02/13 03:32:24;;;;;;;5.97;3.42;;;;;;;3.37;79.01;101545.31;4994972;28;20050;-46
2022/02/13 03:34:52;;;;;;;6.43;3.55;;;;;;;3.41;82.68;101541.16;4994535;28;20126;-47
2022/02/13 03:37:20;;;;;;;8.32;3.92;;;;;;;3.40;77.93;101547.59;4994833;28;20057;-49
2022/02/13 03:39:48;;;;;;;8.52;4.60;;;;;;;3.37;78.59;101548.00;4982016;28;20042;-47
2022/02/13 03:42:16;;;;;;;10.18;4.05;;;;;;;3.41;80.39;101546.56;4975081;28;20042;-49
2022/02/13 03:44:44;;;;;;;8.02;3.85;;;;;;;3.48;85.01;101537.66;4978136;28;20053;-47
2022/02/13 03:47:12;;;;;;;6.75;3.42;;;;;;;3.60;85.73;101544.13;4994771;28;20065;-47
2022/02/13 03:49:40;;;;;;;9.65;4.10;;;;;;;3.50;77.74;101541.81;4977619;28;20050;-49
2022/02/13 03:52:10;;;;;;;7.57;3.85;;;;;;;3.54;83.19;101535.00;4997007;28;20050;-47
2022/02/13 03:54:38;;;;;;;7.68;4.22;;;;;;;3.52;80.99;101528.97;4997153;28;20129;-47
2022/02/13 03:57:06;;;;;;;7.18;3.83;;;;;;;3.46;82.03;101528.97;4995349;28;20062;-46
2022/02/13 03:59:34;;;;;;;6.97;3.67;;;;;;;3.56;84.63;101521.31;4994925;28;20075;-45
2022/02/13 04:02:02;;;;;;;7.68;3.75;;;;;;;3.58;82.80;101524.63;4976917;28;20126;-47
2022/02/13 04:04:30;;;;;;;6.70;3.60;;;;;;;3.55;81.90;101525.03;4976906;28;20050;-48
2022/02/13 04:06:57;;;;;;;6.10;3.47;;;;;;;3.51;80.99;101518.41;4994255;28;20050;-49
2022/02/13 04:09:25;;;;;;;7.35;3.70;;;;;;;3.45;80.39;101524.63;4976945;28;20046;-47
2022/02/13 04:11:53;;;;;;;7.72;3.83;;;;;;;3.42;79.79;101515.91;4994338;28;20050;-48
2022/02/13 04:14:22;;;;;;;9.68;3.95;;;;;;;3.39;79.91;101513.63;4994219;28;20050;-50
2022/02/13 04:16:51;;;;;;;7.72;3.75;;;;;;;3.42;81.70;101507.81;4993883;28;20051;-51
2022/02/13 04:19:21;;;;;;;5.97;3.55;;;;;;;3.39;80.04;101502.84;4993647;28;20118;-50
2022/02/13 04:21:49;;;;;;;7.28;3.53;;;;;;;3.34;80.32;101501.78;4960513;28;20138;-48
2022/02/13 04:24:18;;;;;;;5.78;3.58;;;;;;;3.24;77.20;101491.41;4994492;28;20134;-45
2022/02/13 04:26:46;;;;;;;7.68;4.00;;;;;;;3.29;78.95;101493.47;4993759;28;20042;-51
2022/02/13 04:29:14;;;;;;;7.05;4.07;;;;;;;3.36;82.99;101489.75;4976928;28;20057;-50
2022/02/13 04:31:42;;;;;;;6.60;3.72;;;;;;;3.29;79.83;101477.31;4993508;28;20101;-48
2022/02/13 04:34:09;;;;;;;8.35;3.97;;;;;;;3.25;78.91;101476.91;4993885;28;20046;-47
2022/02/13 04:36:37;;;;;;;8.73;3.90;;;;;;;3.26;79.55;101475.88;4960544;28;20046;-47
2022/02/13 04:39:05;;;;;;;7.13;3.50;;;;;;;3.22;78.75;101471.91;4974335;28;20105;-50
2022/02/13 04:41:33;;;;;;;7.65;3.55;;;;;;;3.25;79.90;101466.16;4941511;28;20105;-46
2022/02/13 04:44:02;;;;;;;7.43;3.80;;;;;;;3.23;78.38;101465.50;4989433;28;20058;-48
2022/02/13 04:46:30;;;;;;;9.60;5.15;;;;;;;3.22;77.29;101466.53;4993989;28;20054;-47
2022/02/13 04:48:58;;;;;;;8.65;4.40;;;;;;;3.09;74.59;101461.13;4993877;28;20097;-47
2022/02/13 04:51:26;;;;;;;8.02;4.40;;;;;;;3.06;76.15;101454.28;4993918;28;20055;-48
2022/02/13 04:53:54;;;;;;;7.72;4.45;;;;;;;3.10;76.36;101458.25;4994237;28;20054;-47
2022/02/13 04:56:22;;;;;;;6.32;3.45;;;;;;;3.09;76.29;101448.50;4993031;28;20050;-47
2022/02/13 04:58:50;;;;;;;8.10;4.15;;;;;;;3.10;77.85;101452.84;4993645;28;20125;-46
2022/02/13 05:01:18;;;;;;;6.68;3.35;;;;;;;3.18;81.28;101455.34;4993668;28;20129;-48
2022/02/13 05:03:45;;;;;;;9.98;3.97;;;;;;;3.29;79.60;101461.16;4996387;28;20108;-46
2022/02/13 05:06:15;;;;;;;6.82;3.83;;;;;;;3.18;76.97;101459.91;4994932;28;20054;-46
2022/02/13 05:08:43;;;;;;;6.82;3.47;;;;;;;3.23;81.79;101452.06;4976228;28;20043;-47
2022/02/13 05:11:11;;;;;;;7.40;3.50;;;;;;;3.19;78.80;101450.78;4993271;28;20038;-48
2022/02/13 05:13:41;;;;;;;7.90;3.55;;;;;;;3.42;86.74;101451.25;4993494;28;20054;-48
2022/02/13 05:16:09;;;;;;;6.95;2.95;;;;;;;3.35;83.48;101449.59;4993534;28;20046;-46
2022/02/13 05:18:37;;;;;;;7.50;3.75;;;;;;;3.33;81.39;101444.41;4993474;28;20042;-47
2022/02/13 05:21:08;;;;;;;7.15;3.70;;;;;;;3.46;82.16;101445.44;4997176;28;20057;-47
2022/02/13 05:23:36;;;;;;;8.18;3.58;;;;;;;3.44;82.47;101459.16;4995095;28;20050;-48
2022/02/13 05:26:04;;;;;;;6.03;3.10;;;;;;;3.44;84.35;101458.28;4980170;28;20042;-48
2022/02/13 05:28:34;;;;;;;5.43;2.80;;;;;;;3.41;85.43;101443.38;4997438;28;20046;-46
2022/02/13 05:31:02;;;;;;;5.85;3.10;;;;;;;3.36;83.47;101453.94;4997174;28;20042;-49
2022/02/13 05:33:30;;;;;;;9.05;3.75;;;;;;;3.29;81.55;101445.84;4996949;28;20057;-47
2022/02/13 05:35:58;;;;;;;6.40;3.40;;;;;;;3.19;80.20;101440.84;4997101;28;20046;-49
2022/02/13 05:38:25;;;;;;;8.10;3.42;;;;;;;3.18;77.47;101438.38;4979745;28;20042;-46
2022/02/13 05:40:53;;;;;;;6.90;3.72;;;;;;;3.11;75.09;101432.97;4996926;28;20058;-45
2022/02/13 05:43:24;;;;;;;7.50;3.53;;;;;;;3.14;79.94;101427.16;4980544;28;20170;-47
2022/02/13 05:45:52;;;;;;;7.68;3.78;;;;;;;3.04;74.66;101426.72;4996459;28;20064;-47
2022/02/13 05:48:20;;;;;;;8.15;3.92;;;;;;;3.00;74.29;101425.47;4996763;28;20057;-45
2022/02/13 05:50:48;;;;;;;7.80;3.63;;;;;;;3.06;76.73;101430.06;4979340;28;20112;-46
2022/02/13 05:53:16;;;;;;;5.47;3.25;;;;;;;3.06;78.35;101423.84;4996785;28;20097;-48
2022/02/13 05:55:44;;;;;;;6.35;3.75;;;;;;;3.05;77.58;101427.56;4996269;28;20054;-45
2022/02/13 05:58:15;;;;;;;7.40;3.65;;;;;;;2.99;76.33;101419.25;4996035;28;20058;-46
2022/02/13 06:00:43;;;;;;;8.15;4.22;;;;;;;2.99;75.49;101424.66;4996385;28;20082;-47
2022/02/13 06:03:11;;;;;;;7.25;3.22;;;;;;;3.04;77.55;101409.75;4996547;28;20050;-48
2022/02/13 06:05:39;;;;;;;7.47;4.35;;;;;;;3.01;75.44;101411.00;4996401;28;20099;-46
2022/02/13 06:08:07;;;;;;;8.82;4.30;;;;;;;3.06;75.69;101403.13;4979358;28;20046;-48
2022/02/13 06:10:35;;;;;;;9.90;4.45;;;;;;;3.05;74.79;101400.63;4996156;28;20039;-47
2022/02/13 06:13:03;;;;;;;9.48;4.50;;;;;;;2.92;75.89;101387.97;4996320;28;20050;-47
2022/02/13 06:15:31;;;;;;;8.40;4.03;;;;;;;2.89;74.72;101386.53;4996137;28;20045;-49
2022/02/13 06:17:58;;;;;;;8.15;3.88;;;;;;;2.87;74.83;101387.78;4978889;28;20056;-49
2022/02/13 06:20:26;;;;;;;8.82;4.13;;;;;;;2.94;76.49;101380.53;4996422;28;20137;-49
2022/02/13 06:22:54;;;;;;;4.25;2.08;;;;;;;3.48;90.40;101373.34;4978906;28;20058;-50
2022/02/13 06:25:22;;;;;;;8.60;4.45;;;;;;;3.60;81.22;101367.09;4996369;28;20069;-46
2022/02/13 06:27:50;;;;;;;9.68;4.90;;;;;;;3.42;77.64;101364.22;4977118;28;20046;-50
2022/02/13 06:30:17;;;;;;;8.82;4.40;;;;;;;2.97;72.71;101356.72;4995163;28;20050;-50
2022/02/13 06:32:47;;;;;;;8.95;4.95;;;;;;;2.75;73.15;101363.31;4995434;28;20110;-49
2022/02/13 06:35:15;;;;;;;9.73;5.03;;;;;;;2.67;72.87;101360.78;4995021;28;20038;-46
2022/02/13 06:37:43;;;;;;;10.32;5.07;;;;;;;2.61;72.99;101362.44;4995436;28;20046;-49
2022/02/13 06:40:11;;;;;;;6.43;2.95;;;;;;;2.89;81.78;101356.94;4995183;28;20035;-46
2022/02/13 06:42:39;;;;;;;8.00;4.68;;;;;;;2.96;76.64;101360.47;4995285;28;20112;-48
2022/02/13 06:45:07;;;;;;;9.70;3.42;;;;;;;3.12;83.31;101358.41;4994776;28;20053;-47
2022/02/13 06:47:39;;;;;;;6.97;3.45;;;;;;;3.22;81.97;101356.13;4996063;28;20121;-46
2022/02/13 06:50:08;;;;;;;8.32;4.03;;;;;;;3.27;81.65;101342.91;4998211;28;20050;-47
2022/02/13 06:52:36;;;;;;;8.80;4.28;;;;;;;3.24;78.51;101355.94;4978345;28;20114;-46
2022/02/13 06:55:04;;;;;;;6.40;3.40;;;;;;;3.13;78.29;101360.06;4995158;28;20050;-49
2022/02/13 06:57:32;;;;;;;5.63;2.67;;;;;;;3.38;89.63;101347.63;4961489;28;20054;-47
2022/02/13 07:00:00;;;;;;;10.07;4.65;;;;;;;3.55;87.25;101347.22;4995017;28;20053;-48
2022/02/13 07:02:28;;;;;;;8.10;3.97;;;;;;;3.49;84.45;101346.19;4994830;28;20125;-48
2022/02/13 07:04:55;;;;;;;8.60;4.38;;;;;;;3.50;84.67;101352.41;4995249;28;20104;-43
2022/02/13 07:07:23;;;;;;;6.70;3.40;;;;;;;3.61;90.17;101349.09;4994816;28;20069;-47
2022/02/13 07:09:51;;;;;;;6.78;4.10;;;;;;;3.50;85.79;101345.16;4992969;28;20097;-48
2022/02/13 07:12:19;;;;;;;8.57;4.30;;;;;;;3.53;87.06;101343.91;4995242;28;20038;-45
2022/02/13 07:14:47;;;;;;;6.93;3.67;;;;;;;3.31;81.51;101341.44;4978525;28;20046;-44
2022/02/13 07:17:15;;;;;;;7.53;4.25;;;;;;;3.24;76.80;101340.59;4995208;28;20086;-47
2022/02/13 07:19:43;;;;;;;7.45;3.30;;;;;;;3.08;79.39;101338.28;4995053;28;20042;-51
2022/02/13 07:22:11;;;;;;;6.88;3.63;;;;;;;3.00;79.65;101331.25;4995579;28;20125;-46
2022/02/13 07:24:42;;;;;;;6.90;3.20;;;;;;;3.34;88.77;101330.25;4994714;28;20046;-46
2022/02/13 07:27:11;;;;;;;10.48;4.93;;;;;;;3.23;77.98;101335.44;4994206;28;20148;-47
2022/02/13 07:29:39;;;;;;;7.07;3.65;;;;;;;3.23;81.80;101332.75;4994990;28;20046;-48
2022/02/13 07:32:08;;;;;;;8.85;4.63;;;;;;;3.18;78.35;101346.81;4994727;28;20122;-46
2022/02/13 07:34:36;;;;;;;6.20;3.65;;;;;;;3.13;76.22;101344.75;4993593;28;20053;-50
2022/02/13 07:37:04;;;;;;;8.20;4.68;;;;;;;2.96;75.52;101340.78;4993846;28;20126;-45
2022/02/13 07:39:33;;;;;;;9.85;5.07;;;;;;;2.92;75.75;101340.34;4994136;28;20074;-48
2022/02/13 07:42:02;;;;;;;7.72;4.40;;;;;;;3.02;77.16;101344.53;4994206;28;20078;-47
2022/02/13 07:44:31;;;;;;;9.07;3.88;;;;;;;3.04;78.49;101340.59;4994176;28;20046;-47
2022/02/13 07:46:59;;;;;;;6.85;3.25;;;;;;;3.26;86.26;101329.63;4993135;28;20077;-49
2022/02/13 07:49:27;;;;;;;10.25;4.75;;;;;;;3.26;80.01;101333.13;4977341;28;20073;-49
2022/02/13 07:51:55;;;;;;;10.38;4.60;;;;;;;3.36;82.17;101335.41;4994317;28;20046;-47
2022/02/13 07:54:22;;;;;;;10.10;4.82;;;;;;;3.21;76.13;101335.63;4976783;28;20497;-46
2022/02/13 07:56:50;;;;;;;8.85;4.70;;;;;;;3.09;74.78;101329.19;4993944;28;20054;-50
2022/02/13 07:59:18;;;;;;;8.32;4.35;;;;;;;3.04;74.40;101329.00;4993871;28;20039;-49
2022/02/13 08:01:47;;;;;;;9.25;4.70;;;;;;;3.01;73.84;101330.25;4976882;28;20073;-45
2022/02/13 08:04:16;;;;;;;10.05;4.47;;;;;;;3.00;74.12;101339.34;4993878;28;20060;-49
2022/02/13 08:06:44;;;;;;;8.77;4.68;;;;;;;2.97;73.58;101329.81;4993864;28;20058;-50
2022/02/13 08:09:13;;;;;;;8.25;4.68;;;;;;;2.99;73.46;101333.13;4993716;28;20058;-51
2022/02/13 08:11:41;;;;;;;8.57;4.75;;;;;;;2.99;73.77;101326.91;4993836;28;20050;-50
2022/02/13 08:14:09;;;;;;;8.73;4.50;;;;;;;3.03;73.93;101332.72;4977533;28;20043;-47
2022/02/13 08:16:36;;;;;;;9.38;4.88;;;;;;;3.05;73.38;101336.03;4979483;28;20042;-47
2022/02/13 08:19:04;;;;;;;11.05;5.50;;;;;;;3.06;73.89;101335.00;4998190;28;20520;-48
2022/02/13 08:21:32;;;;;;;9.35;5.13;;;;;;;3.07;73.80;101334.78;4994444;28;20043;-46
2022/02/13 08:24:00;;;;;;;10.57;6.00;;;;;;;3.08;73.62;101331.06;4993157;28;20038;-49
2022/02/13 08:26:27;;;;;;;10.18;5.40;;;;;;;3.12;73.37;101328.78;4993348;28;20050;-46
2022/02/13 08:28:55;;;;;;;10.57;5.47;;;;;;;3.12;73.41;101326.91;4976520;28;20085;-49
2022/02/13 08:31:23;;;;;;;10.35;5.50;;;;;;;3.12;73.34;101331.47;4993880;28;20057;-47
2022/02/13 08:33:51;;;;;;;9.30;4.85;;;;;;;3.14;73.51;101319.47;4976165;28;20057;-48
2022/02/13 08:36:18;;;;;;;12.05;4.97;;;;;;;3.23;74.08;101325.50;4993413;28;20042;-45
2022/02/13 08:38:46;;;;;;;9.48;5.40;;;;;;;3.20;73.04;101318.66;4976153;28;20054;-49
2022/02/13 08:41:16;;;;;;;9.95;5.35;;;;;;;3.22;73.39;101318.41;4993871;28;20049;-47
2022/02/13 08:43:44;;;;;;;19.00;7.15;;;;;;;3.32;76.27;101316.16;4976502;28;20046;-50
2022/02/13 08:46:12;;;;;;;29.70;9.18;;;;;;;3.93;90.93;101308.81;4976645;28;20057;-48
2022/02/13 08:48:42;;;;;;;20.08;6.78;;;;;;;4.19;91.29;101311.41;4993671;28;20050;-43
2022/02/13 08:51:11;;;;;;;11.80;5.57;;;;;;;4.09;84.61;101307.50;4993539;28;20062;-47
2022/02/13 08:53:39;;;;;;;13.55;5.53;;;;;;;4.13;87.93;101306.84;4993551;28;20042;-48
2022/02/13 08:56:07;;;;;;;20.25;6.57;;;;;;;4.25;90.63;101297.06;4992940;28;20042;-46
2022/02/13 08:58:35;;;;;;;13.88;5.38;;;;;;;4.43;90.42;101290.16;4978492;28;20046;-42
2022/02/13 09:01:03;;;;;;;21.50;6.10;;;;;;;4.49;97.53;101286.56;4997709;28;20053;-45
2022/02/13 09:03:31;;;;;;;13.35;5.43;;;;;;;4.63;91.27;101296.25;4980756;28;20061;-42
2022/02/13 09:05:59;;;;;;;17.45;5.95;;;;;;;4.83;92.73;101295.28;4980191;28;20473;-43
2022/02/13 09:08:27;;;;;;;13.05;5.22;;;;;;;4.87;93.07;101291.13;4980507;28;20088;-45
2022/02/13 09:10:55;;;;;;;19.45;6.18;;;;;;;5.36;96.13;101273.25;4997414;28;20050;-47
2022/02/13 09:13:22;;;;;;;19.77;5.55;;;;;;;5.65;96.82;101271.75;4997438;28;20145;-47
2022/02/13 09:15:50;;;;;;;16.15;5.35;;;;;;;5.89;94.58;101261.06;4997585;28;20055;-46
2022/02/13 09:18:18;;;;;;;12.80;4.97;;;;;;;6.14;92.17;101259.13;4998983;28;20125;-47
2022/02/13 09:20:48;;;;;;;19.05;5.35;;;;;;;6.25;91.87;101259.41;4998184;28;20046;-45
2022/02/13 09:23:17;;;;;;;14.02;4.63;;;;;;;6.35;87.45;101255.09;4979966;28;20580;-44
2022/02/13 09:25:46;;;;;;;15.20;4.43;;;;;;;6.13;92.08;101251.22;4997290;28;20052;-45
2022/02/13 09:28:14;;;;;;;11.82;4.47;;;;;;;6.15;90.27;101241.00;4979793;28;20046;-42
2022/02/13 09:30:46;;;;;;;12.82;5.53;;;;;;;6.59;88.17;101228.94;4997550;28;20046;-42
2022/02/13 09:33:20;;;;;;;10.93;4.20;;;;;;;6.31;90.09;101226.03;4981331;28;20125;-46
2022/02/13 09:35:49;;;;;;;9.10;4.22;;;;;;;5.88;80.96;101216.16;4997034;28;20050;-46
2022/02/13 09:38:17;;;;;;;8.85;4.10;;;;;;;5.59;88.02;101225.84;4996717;28;20054;-48
2022/02/13 09:40:47;;;;;;;9.70;4.43;;;;;;;5.36;91.57;101232.72;4996862;28;20046;-47
2022/02/13 09:43:17;;;;;;;11.98;3.90;;;;;;;5.41;93.82;101232.06;4996978;28;20055;-47
2022/02/13 09:45:48;;;;;;;9.90;3.50;;;;;;;5.25;93.25;101228.06;5000257;28;20042;-47
2022/02/13 09:48:20;;;;;;;11.98;4.40;;;;;;;5.86;92.53;101224.47;5000254;28;20050;-47
2022/02/13 09:50:48;;;;;;;9.80;4.78;;;;;;;5.96;86.94;101219.41;4963590;28;20129;-48
2022/02/13 09:53:17;;;;;;;12.40;4.53;;;;;;;6.15;88.98;101213.94;4996757;28;20046;-49
2022/02/13 09:55:48;;;;;;;10.60;4.03;;;;;;;6.00;91.00;101213.53;4979545;28;20058;-46
2022/02/13 09:58:16;;;;;;;9.32;4.20;;;;;;;6.35;87.47;101200.97;4996291;28;20067;-46
2022/02/13 10:01:01;;;;;;;10.85;3.60;;;;;;;6.71;88.38;101196.47;4996540;28;20053;-47
2022/02/13 10:03:34;;;;;;;10.27;3.85;;;;;;;6.99;85.94;101194.97;4996777;28;20133;-42
2022/02/13 10:06:23;;;;;;;9.73;3.63;;;;;;;7.05;81.91;101196.75;4979462;28;20081;-44
2022/02/13 10:08:53;;;;;;;9.75;3.80;;;;;;;7.12;83.63;101194.75;4996567;28;20124;-46
2022/02/13 10:11:25;;;;;;;9.00;3.50;;;;;;;7.62;81.05;101180.63;4995354;28;20043;-46
2022/02/13 10:14:05;;;;;;;12.02;4.03;;;;;;;7.45;81.58;101171.59;4979724;28;20081;-44
2022/02/13 10:16:37;;;;;;;9.80;3.60;;;;;;;7.69;79.65;101175.91;4978864;28;20137;-44
2022/02/13 10:19:05;;;;;;;8.80;3.42;;;;;;;7.66;79.71;101167.44;4980263;28;20053;-43
2022/02/13 10:21:50;;;;;;;10.73;3.30;;;;;;;8.10;79.16;101165.03;4979490;28;20081;-45
2022/02/13 10:24:21;;;;;;;11.95;3.78;;;;;;;8.00;77.74;101167.53;4996171;28;20069;-45
2022/02/13 10:26:51;;;;;;;8.80;3.67;;;;;;;7.46;77.64;101170.53;4996569;28;20042;-50
2022/02/13 10:29:22;;;;;;;8.38;4.10;;;;;;;7.39;78.21;101161.72;4979735;28;20053;-47
2022/02/13 10:31:52;;;;;;;8.00;3.55;;;;;;;7.02;78.62;101165.53;4980907;28;20062;-47
2022/02/13 10:34:20;;;;;;;9.45;4.07;;;;;;;6.76;80.03;101158.69;4998042;28;20112;-46
2022/02/13 10:36:49;;;;;;;10.20;4.00;;;;;;;6.70;78.07;101154.19;4996262;28;20057;-47
2022/02/13 10:39:22;;;;;;;8.10;3.20;;;;;;;6.70;83.73;101156.91;4979239;28;20073;-44
2022/02/13 10:41:52;;;;;;;9.43;3.60;;;;;;;6.63;80.63;101155.38;4995871;28;20054;-46
2022/02/13 10:44:27;;;;;;;8.10;3.47;;;;;;;6.58;83.77;101151.47;4978760;28;20050;-45
2022/02/13 10:46:56;;;;;;;7.50;3.05;;;;;;;6.72;84.04;101151.25;4995838;28;20051;-46
2022/02/13 10:49:24;;;;;;;7.57;3.50;;;;;;;6.98;78.60;101141.84;4978411;28;20058;-45
2022/02/13 10:51:53;;;;;;;7.10;3.25;;;;;;;6.93;81.70;101141.75;4978891;28;20058;-47
2022/02/13 10:54:21;;;;;;;6.22;3.22;;;;;;;7.10;80.95;101137.25;4978328;28;20093;-48
2022/02/13 10:56:49;;;;;;;6.90;3.28;;;;;;;7.25;80.20;101145.69;4995050;28;20125;-47
2022/02/13 10:59:17;;;;;;;7.20;3.15;;;;;;;7.39;79.72;101148.16;4995420;28;20050;-44
2022/02/13 11:01:49;;;;;;;7.38;3.78;;;;;;;7.78;76.58;101145.69;4995304;28;20081;-48
2022/02/13 11:04:19;;;;;;;6.57;2.50;;;;;;;7.73;79.91;101137.47;4995354;28;20042;-46
2022/02/13 11:06:47;;;;;;;10.25;3.88;;;;;;;7.65;77.01;101120.50;4978614;28;20058;-48
2022/02/13 11:09:23;;;;;;;8.27;3.45;;;;;;;7.28;80.55;101119.19;4977857;28;20050;-44
2022/02/13 11:11:54;;;;;;;7.93;4.05;;;;;;;7.72;76.16;101116.81;4978499;28;20064;-46
2022/02/13 11:14:49;;;;;;;4.18;2.33;;;;;;;8.14;78.07;101108.38;4995842;28;20058;-46
2022/02/13 11:17:34;;;;;;;7.53;3.20;;;;;;;7.85;77.27;101105.69;4994301;28;20046;-45
2022/02/13 11:20:05;;;;;;;7.82;3.13;;;;;;;7.88;77.16;101088.91;4995480;28;20105;-46
2022/02/13 11:22:38;;;;;;;4.70;2.63;;;;;;;8.43;77.17;101085.53;4994927;28;20051;-46
2022/02/13 11:25:07;;;;;;;5.85;3.00;;;;;;;8.27;73.84;101080.91;4995571;28;20097;-48
2022/02/13 11:27:54;;;;;;;7.10;3.47;;;;;;;8.22;75.46;101078.09;4979260;28;20050;-47
2022/02/13 11:30:56;;;;;;;4.93;2.67;;;;;;;8.30;77.48;101072.28;4995545;28;20053;-45
2022/02/13 11:33:28;;;;;;;6.32;3.30;;;;;;;8.40;73.98;101058.91;4944506;28;20381;-47
2022/02/13 11:35:58;;;;;;;3.60;1.85;;;;;;;8.90;74.34;101046.31;4995040;28;20046;-45
2022/02/13 11:38:47;;;;;;;3.85;2.35;;;;;;;8.68;73.70;101038.13;4977631;28;20059;-45